sensor_id;sensor_type;location;lat;lon;timestamp;temperature;humidity
44990;DHT22;30723;51.206;3.326;2023-03-03T00:01:51;3.00;99.90
44990;DHT22;30723;51.206;3.326;2023-03-03T00:04:17;3.00;99.90
44990;DHT22;30723;51.206;3.326;2023-03-03T00:06:44;3.00;99.90
44990;DHT22;30723;51.206;3.326;2023-03-03T00:09:10;3.00;99.90
44990;DHT22;30723;51.206;3.326;2023-03-03T00:11:37;3.00;99.90
44990;DHT22;30723;51.206;3.326;2023-03-03T00:14:21;3.00;99.90
44990;DHT22;30723;51.206;3.326;2023-03-03T00:16:48;3.00;99.90
44990;DHT22;30723;51.206;3.326;2023-03-03T00:19:18;3.00;99.90
44990;DHT22;30723;51.206;3.326;2023-03-03T00:21:47;3.00;99.90
44990;DHT22;30723;51.206;3.326;2023-03-03T00:24:20;3.00;99.90
44990;DHT22;30723;51.206;3.326;2023-03-03T00:26:54;3.00;99.90
44990;DHT22;30723;51.206;3.326;2023-03-03T00:29:33;3.00;99.90
44990;DHT22;30723;51.206;3.326;2023-03-03T00:34:41;3.00;99.90
44990;DHT22;30723;51.206;3.326;2023-03-03T00:39:49;3.00;99.90
44990;DHT22;30723;51.206;3.326;2023-03-03T00:42:16;3.00;99.90
44990;DHT22;30723;51.206;3.326;2023-03-03T00:44:57;3.00;99.90
44990;DHT22;30723;51.206;3.326;2023-03-03T00:47:25;2.90;99.90
44990;DHT22;30723;51.206;3.326;2023-03-03T00:50:21;2.90;99.90
44990;DHT22;30723;51.206;3.326;2023-03-03T00:52:53;2.90;99.90
44990;DHT22;30723;51.206;3.326;2023-03-03T00:55:22;2.90;99.90
44990;DHT22;30723;51.206;3.326;2023-03-03T00:57:48;2.90;99.90
44990;DHT22;30723;51.206;3.326;2023-03-03T01:00:16;2.80;99.90
44990;DHT22;30723;51.206;3.326;2023-03-03T01:02:42;2.80;99.90
44990;DHT22;30723;51.206;3.326;2023-03-03T01:05:15;2.80;99.90
44990;DHT22;30723;51.206;3.326;2023-03-03T01:07:42;2.80;99.90
44990;DHT22;30723;51.206;3.326;2023-03-03T01:10:11;2.80;99.90
44990;DHT22;30723;51.206;3.326;2023-03-03T01:12:38;2.80;99.90
44990;DHT22;30723;51.206;3.326;2023-03-03T01:15:08;2.70;99.90
44990;DHT22;30723;51.206;3.326;2023-03-03T01:17:35;2.70;99.90
44990;DHT22;30723;51.206;3.326;2023-03-03T01:20:03;2.70;99.90
44990;DHT22;30723;51.206;3.326;2023-03-03T01:22:30;2.60;99.90
44990;DHT22;30723;51.206;3.326;2023-03-03T01:24:59;2.60;99.90
44990;DHT22;30723;51.206;3.326;2023-03-03T01:27:29;2.60;99.90
44990;DHT22;30723;51.206;3.326;2023-03-03T01:29:56;2.60;99.90
44990;DHT22;30723;51.206;3.326;2023-03-03T01:32:24;2.60;99.90
44990;DHT22;30723;51.206;3.326;2023-03-03T01:34:50;2.50;99.90
44990;DHT22;30723;51.206;3.326;2023-03-03T01:37:16;2.50;99.90
44990;DHT22;30723;51.206;3.326;2023-03-03T01:39:46;2.60;99.90
44990;DHT22;30723;51.206;3.326;2023-03-03T01:42:12;2.50;99.90
44990;DHT22;30723;51.206;3.326;2023-03-03T01:44:41;2.50;99.90
44990;DHT22;30723;51.206;3.326;2023-03-03T01:47:19;2.50;99.90
44990;DHT22;30723;51.206;3.326;2023-03-03T01:49:57;2.50;99.90
44990;DHT22;30723;51.206;3.326;2023-03-03T01:52:35;2.50;99.90
44990;DHT22;30723;51.206;3.326;2023-03-03T01:55:05;2.50;99.90
44990;DHT22;30723;51.206;3.326;2023-03-03T01:57:38;2.50;99.90
44990;DHT22;30723;51.206;3.326;2023-03-03T02:00:08;2.50;99.90
44990;DHT22;30723;51.206;3.326;2023-03-03T02:02:35;2.50;99.90
44990;DHT22;30723;51.206;3.326;2023-03-03T02:05:02;2.50;99.90
44990;DHT22;30723;51.206;3.326;2023-03-03T02:07:30;2.40;99.90
44990;DHT22;30723;51.206;3.326;2023-03-03T02:10:06;2.40;99.90
44990;DHT22;30723;51.206;3.326;2023-03-03T02:12:37;2.40;99.90
44990;DHT22;30723;51.206;3.326;2023-03-03T02:18:14;2.40;99.90
44990;DHT22;30723;51.206;3.326;2023-03-03T02:23:52;2.30;99.90
44990;DHT22;30723;51.206;3.326;2023-03-03T02:26:26;2.30;99.90
44990;DHT22;30723;51.206;3.326;2023-03-03T02:28:53;2.20;99.90
44990;DHT22;30723;51.206;3.326;2023-03-03T02:31:21;2.10;99.90
44990;DHT22;30723;51.206;3.326;2023-03-03T02:33:50;2.20;99.90
44990;DHT22;30723;51.206;3.326;2023-03-03T02:36:22;2.10;99.90
44990;DHT22;30723;51.206;3.326;2023-03-03T02:41:34;2.10;99.90
44990;DHT22;30723;51.206;3.326;2023-03-03T02:44:06;2.10;99.90
44990;DHT22;30723;51.206;3.326;2023-03-03T02:46:37;2.00;99.90
44990;DHT22;30723;51.206;3.326;2023-03-03T02:49:05;2.10;99.90
44990;DHT22;30723;51.206;3.326;2023-03-03T02:51:32;2.00;99.90
44990;DHT22;30723;51.206;3.326;2023-03-03T02:53:59;2.10;99.90
44990;DHT22;30723;51.206;3.326;2023-03-03T02:56:25;2.00;99.90
44990;DHT22;30723;51.206;3.326;2023-03-03T02:58:52;2.00;99.90
44990;DHT22;30723;51.206;3.326;2023-03-03T03:01:18;2.00;99.90
44990;DHT22;30723;51.206;3.326;2023-03-03T03:03:46;2.00;99.90
44990;DHT22;30723;51.206;3.326;2023-03-03T03:06:13;2.00;99.90
44990;DHT22;30723;51.206;3.326;2023-03-03T03:08:41;2.00;99.90
44990;DHT22;30723;51.206;3.326;2023-03-03T03:11:07;1.90;99.90
44990;DHT22;30723;51.206;3.326;2023-03-03T03:13:34;1.90;99.90
44990;DHT22;30723;51.206;3.326;2023-03-03T03:16:00;1.90;99.90
44990;DHT22;30723;51.206;3.326;2023-03-03T03:18:27;1.90;99.90
44990;DHT22;30723;51.206;3.326;2023-03-03T03:20:53;1.90;99.90
44990;DHT22;30723;51.206;3.326;2023-03-03T03:23:21;1.90;99.90
44990;DHT22;30723;51.206;3.326;2023-03-03T03:25:47;1.80;99.90
44990;DHT22;30723;51.206;3.326;2023-03-03T03:28:15;1.70;99.90
44990;DHT22;30723;51.206;3.326;2023-03-03T03:30:41;1.70;99.90
44990;DHT22;30723;51.206;3.326;2023-03-03T03:33:10;1.70;99.90
44990;DHT22;30723;51.206;3.326;2023-03-03T03:35:36;1.70;99.90
44990;DHT22;30723;51.206;3.326;2023-03-03T03:38:03;1.70;99.90
44990;DHT22;30723;51.206;3.326;2023-03-03T03:40:30;1.60;99.90
44990;DHT22;30723;51.206;3.326;2023-03-03T03:42:57;1.60;99.90
44990;DHT22;30723;51.206;3.326;2023-03-03T03:45:24;1.60;99.90
44990;DHT22;30723;51.206;3.326;2023-03-03T03:47:50;1.60;99.90
44990;DHT22;30723;51.206;3.326;2023-03-03T03:50:17;1.60;99.90
44990;DHT22;30723;51.206;3.326;2023-03-03T03:52:44;1.60;99.90
44990;DHT22;30723;51.206;3.326;2023-03-03T03:55:10;1.60;99.90
44990;DHT22;30723;51.206;3.326;2023-03-03T03:57:36;1.60;99.90
44990;DHT22;30723;51.206;3.326;2023-03-03T04:00:05;1.60;99.90
44990;DHT22;30723;51.206;3.326;2023-03-03T04:02:31;1.60;99.90
44990;DHT22;30723;51.206;3.326;2023-03-03T04:04:58;1.60;99.90
44990;DHT22;30723;51.206;3.326;2023-03-03T04:07:25;1.50;99.90
44990;DHT22;30723;51.206;3.326;2023-03-03T04:09:51;1.50;99.90
44990;DHT22;30723;51.206;3.326;2023-03-03T04:12:16;1.50;99.90
44990;DHT22;30723;51.206;3.326;2023-03-03T04:14:42;1.50;99.90
44990;DHT22;30723;51.206;3.326;2023-03-03T04:17:16;1.50;99.90
44990;DHT22;30723;51.206;3.326;2023-03-03T04:19:44;1.60;99.90
44990;DHT22;30723;51.206;3.326;2023-03-03T04:22:10;1.60;99.90
44990;DHT22;30723;51.206;3.326;2023-03-03T04:24:37;1.60;99.90
44990;DHT22;30723;51.206;3.326;2023-03-03T04:27:04;1.60;99.90
44990;DHT22;30723;51.206;3.326;2023-03-03T04:29:31;1.60;99.90
44990;DHT22;30723;51.206;3.326;2023-03-03T04:31:56;1.60;99.90
44990;DHT22;30723;51.206;3.326;2023-03-03T04:34:23;1.70;99.90
44990;DHT22;30723;51.206;3.326;2023-03-03T04:36:49;1.70;99.90
44990;DHT22;30723;51.206;3.326;2023-03-03T04:39:16;1.70;99.90
44990;DHT22;30723;51.206;3.326;2023-03-03T04:41:42;1.80;99.90
44990;DHT22;30723;51.206;3.326;2023-03-03T04:44:08;1.70;99.90
44990;DHT22;30723;51.206;3.326;2023-03-03T04:46:35;1.70;99.90
44990;DHT22;30723;51.206;3.326;2023-03-03T04:49:01;1.70;99.90
44990;DHT22;30723;51.206;3.326;2023-03-03T04:51:28;1.70;99.90
44990;DHT22;30723;51.206;3.326;2023-03-03T04:53:55;1.70;99.90
44990;DHT22;30723;51.206;3.326;2023-03-03T04:56:21;1.70;99.90
44990;DHT22;30723;51.206;3.326;2023-03-03T04:58:48;1.70;99.90
44990;DHT22;30723;51.206;3.326;2023-03-03T05:01:13;1.70;99.90
44990;DHT22;30723;51.206;3.326;2023-03-03T05:03:41;1.70;99.90
44990;DHT22;30723;51.206;3.326;2023-03-03T05:06:07;1.70;99.90
44990;DHT22;30723;51.206;3.326;2023-03-03T05:08:34;1.70;99.90
44990;DHT22;30723;51.206;3.326;2023-03-03T05:11:01;1.70;99.90
44990;DHT22;30723;51.206;3.326;2023-03-03T05:13:28;1.70;99.90
44990;DHT22;30723;51.206;3.326;2023-03-03T05:15:55;1.70;99.90
44990;DHT22;30723;51.206;3.326;2023-03-03T05:18:22;1.70;99.90
44990;DHT22;30723;51.206;3.326;2023-03-03T05:20:50;1.60;99.90
44990;DHT22;30723;51.206;3.326;2023-03-03T05:23:17;1.60;99.90
44990;DHT22;30723;51.206;3.326;2023-03-03T05:25:44;1.70;99.90
44990;DHT22;30723;51.206;3.326;2023-03-03T05:28:12;1.70;99.90
44990;DHT22;30723;51.206;3.326;2023-03-03T05:30:38;1.70;99.90
44990;DHT22;30723;51.206;3.326;2023-03-03T05:33:04;1.70;99.90
44990;DHT22;30723;51.206;3.326;2023-03-03T05:35:31;1.60;99.90
44990;DHT22;30723;51.206;3.326;2023-03-03T05:37:57;1.60;99.90
44990;DHT22;30723;51.206;3.326;2023-03-03T05:40:27;1.70;99.90
44990;DHT22;30723;51.206;3.326;2023-03-03T05:42:54;1.70;99.90
44990;DHT22;30723;51.206;3.326;2023-03-03T05:45:21;1.60;99.90
44990;DHT22;30723;51.206;3.326;2023-03-03T05:48:08;1.70;99.90
44990;DHT22;30723;51.206;3.326;2023-03-03T05:50:35;1.70;99.90
44990;DHT22;30723;51.206;3.326;2023-03-03T05:53:02;1.70;99.90
44990;DHT22;30723;51.206;3.326;2023-03-03T05:55:31;1.70;99.90
44990;DHT22;30723;51.206;3.326;2023-03-03T05:57:57;1.70;99.90
44990;DHT22;30723;51.206;3.326;2023-03-03T06:00:24;1.70;99.90
44990;DHT22;30723;51.206;3.326;2023-03-03T06:02:51;1.70;99.90
44990;DHT22;30723;51.206;3.326;2023-03-03T06:05:17;1.70;99.90
44990;DHT22;30723;51.206;3.326;2023-03-03T06:07:44;1.80;99.90
44990;DHT22;30723;51.206;3.326;2023-03-03T06:10:11;1.80;99.90
44990;DHT22;30723;51.206;3.326;2023-03-03T06:12:38;1.80;99.90
44990;DHT22;30723;51.206;3.326;2023-03-03T06:15:07;1.90;99.90
44990;DHT22;30723;51.206;3.326;2023-03-03T06:17:33;1.90;99.90
44990;DHT22;30723;51.206;3.326;2023-03-03T06:19:58;1.90;99.90
44990;DHT22;30723;51.206;3.326;2023-03-03T06:22:24;1.90;99.90
44990;DHT22;30723;51.206;3.326;2023-03-03T06:24:51;2.00;99.90
44990;DHT22;30723;51.206;3.326;2023-03-03T06:27:20;2.00;99.90
44990;DHT22;30723;51.206;3.326;2023-03-03T06:29:47;2.10;99.90
44990;DHT22;30723;51.206;3.326;2023-03-03T06:32:13;2.10;99.90
44990;DHT22;30723;51.206;3.326;2023-03-03T06:34:41;2.10;99.90
44990;DHT22;30723;51.206;3.326;2023-03-03T06:37:07;2.10;99.90
44990;DHT22;30723;51.206;3.326;2023-03-03T06:39:34;2.20;99.90
44990;DHT22;30723;51.206;3.326;2023-03-03T06:42:01;2.30;99.90
44990;DHT22;30723;51.206;3.326;2023-03-03T06:44:28;2.30;99.90
44990;DHT22;30723;51.206;3.326;2023-03-03T06:46:54;2.20;99.90
44990;DHT22;30723;51.206;3.326;2023-03-03T06:49:22;2.30;99.90
44990;DHT22;30723;51.206;3.326;2023-03-03T06:51:47;2.40;99.90
44990;DHT22;30723;51.206;3.326;2023-03-03T06:54:27;2.40;99.90
44990;DHT22;30723;51.206;3.326;2023-03-03T06:57:00;2.40;99.90
44990;DHT22;30723;51.206;3.326;2023-03-03T06:59:29;2.40;99.90
44990;DHT22;30723;51.206;3.326;2023-03-03T07:01:56;2.40;99.90
44990;DHT22;30723;51.206;3.326;2023-03-03T07:04:26;2.40;99.90
44990;DHT22;30723;51.206;3.326;2023-03-03T07:07:18;2.50;99.90
44990;DHT22;30723;51.206;3.326;2023-03-03T07:09:48;2.50;99.90
44990;DHT22;30723;51.206;3.326;2023-03-03T07:12:19;2.50;99.90
44990;DHT22;30723;51.206;3.326;2023-03-03T07:14:51;2.50;99.90
44990;DHT22;30723;51.206;3.326;2023-03-03T07:17:23;2.60;99.90
44990;DHT22;30723;51.206;3.326;2023-03-03T07:19:50;2.50;99.90
44990;DHT22;30723;51.206;3.326;2023-03-03T07:22:19;2.50;99.90
44990;DHT22;30723;51.206;3.326;2023-03-03T07:24:56;2.60;99.90
44990;DHT22;30723;51.206;3.326;2023-03-03T07:29:51;2.70;99.90
44990;DHT22;30723;51.206;3.326;2023-03-03T07:32:43;2.80;99.90
44990;DHT22;30723;51.206;3.326;2023-03-03T07:37:54;3.00;99.90
44990;DHT22;30723;51.206;3.326;2023-03-03T07:42:46;3.10;99.90
44990;DHT22;30723;51.206;3.326;2023-03-03T07:45:26;3.20;99.90
44990;DHT22;30723;51.206;3.326;2023-03-03T07:48:44;3.20;99.90
44990;DHT22;30723;51.206;3.326;2023-03-03T07:50:44;3.20;99.90
44990;DHT22;30723;51.206;3.326;2023-03-03T07:53:30;3.10;99.90
44990;DHT22;30723;51.206;3.326;2023-03-03T07:56:00;3.20;99.90
44990;DHT22;30723;51.206;3.326;2023-03-03T07:58:36;3.40;99.90
44990;DHT22;30723;51.206;3.326;2023-03-03T08:03:54;3.30;99.90
44990;DHT22;30723;51.206;3.326;2023-03-03T08:08:52;3.30;99.90
44990;DHT22;30723;51.206;3.326;2023-03-03T08:11:17;3.40;99.90
44990;DHT22;30723;51.206;3.326;2023-03-03T08:13:44;3.40;99.90
44990;DHT22;30723;51.206;3.326;2023-03-03T08:18:40;3.40;99.90
44990;DHT22;30723;51.206;3.326;2023-03-03T08:21:14;3.50;99.90
44990;DHT22;30723;51.206;3.326;2023-03-03T08:23:41;3.50;99.90
44990;DHT22;30723;51.206;3.326;2023-03-03T08:26:07;3.60;99.90
44990;DHT22;30723;51.206;3.326;2023-03-03T08:28:32;3.70;99.90
44990;DHT22;30723;51.206;3.326;2023-03-03T08:30:58;3.70;99.90
44990;DHT22;30723;51.206;3.326;2023-03-03T08:33:25;3.90;99.90
44990;DHT22;30723;51.206;3.326;2023-03-03T08:35:52;4.00;99.90
44990;DHT22;30723;51.206;3.326;2023-03-03T08:38:20;3.90;99.90
44990;DHT22;30723;51.206;3.326;2023-03-03T08:40:47;3.90;99.90
44990;DHT22;30723;51.206;3.326;2023-03-03T08:43:15;3.90;99.90
44990;DHT22;30723;51.206;3.326;2023-03-03T08:45:52;4.00;99.90
44990;DHT22;30723;51.206;3.326;2023-03-03T08:48:20;4.00;99.90
44990;DHT22;30723;51.206;3.326;2023-03-03T08:50:46;4.10;99.90
44990;DHT22;30723;51.206;3.326;2023-03-03T08:53:13;4.10;99.90
44990;DHT22;30723;51.206;3.326;2023-03-03T08:55:41;4.20;99.90
44990;DHT22;30723;51.206;3.326;2023-03-03T08:58:08;4.30;99.90
44990;DHT22;30723;51.206;3.326;2023-03-03T09:00:35;4.40;99.90
44990;DHT22;30723;51.206;3.326;2023-03-03T09:03:02;4.60;99.90
44990;DHT22;30723;51.206;3.326;2023-03-03T09:05:30;4.90;99.90
44990;DHT22;30723;51.206;3.326;2023-03-03T09:07:57;4.80;99.90
44990;DHT22;30723;51.206;3.326;2023-03-03T09:10:26;4.70;99.90
44990;DHT22;30723;51.206;3.326;2023-03-03T09:12:56;4.80;99.90
44990;DHT22;30723;51.206;3.326;2023-03-03T09:15:36;4.80;99.90
44990;DHT22;30723;51.206;3.326;2023-03-03T09:18:20;5.00;99.90
44990;DHT22;30723;51.206;3.326;2023-03-03T09:20:51;5.10;99.90
44990;DHT22;30723;51.206;3.326;2023-03-03T09:23:36;5.30;99.90
44990;DHT22;30723;51.206;3.326;2023-03-03T09:26:19;5.30;99.90
44990;DHT22;30723;51.206;3.326;2023-03-03T09:28:47;5.40;99.90
44990;DHT22;30723;51.206;3.326;2023-03-03T09:31:26;5.50;99.90
44990;DHT22;30723;51.206;3.326;2023-03-03T09:33:52;5.50;99.90
44990;DHT22;30723;51.206;3.326;2023-03-03T09:36:34;5.50;99.90
44990;DHT22;30723;51.206;3.326;2023-03-03T09:56:40;5.50;99.90
44990;DHT22;30723;51.206;3.326;2023-03-03T10:07:35;5.90;99.90
44990;DHT22;30723;51.206;3.326;2023-03-03T10:16:03;5.90;99.90
44990;DHT22;30723;51.206;3.326;2023-03-03T10:19:01;6.00;99.90
44990;DHT22;30723;51.206;3.326;2023-03-03T10:21:38;6.30;99.90
44990;DHT22;30723;51.206;3.326;2023-03-03T10:24:28;6.30;99.90
44990;DHT22;30723;51.206;3.326;2023-03-03T10:27:19;6.40;99.90
44990;DHT22;30723;51.206;3.326;2023-03-03T10:32:46;6.90;99.90
44990;DHT22;30723;51.206;3.326;2023-03-03T10:41:15;7.40;99.90
44990;DHT22;30723;51.206;3.326;2023-03-03T10:46:51;7.80;99.90
44990;DHT22;30723;51.206;3.326;2023-03-03T10:52:32;7.80;99.90
44990;DHT22;30723;51.206;3.326;2023-03-03T10:58:40;8.30;99.90
44990;DHT22;30723;51.206;3.326;2023-03-03T11:01:11;8.50;99.90
44990;DHT22;30723;51.206;3.326;2023-03-03T11:04:09;8.80;99.90
44990;DHT22;30723;51.206;3.326;2023-03-03T11:06:49;10.00;99.90
44990;DHT22;30723;51.206;3.326;2023-03-03T11:09:57;11.10;99.90
44990;DHT22;30723;51.206;3.326;2023-03-03T11:12:37;11.80;99.90
44990;DHT22;30723;51.206;3.326;2023-03-03T11:26:37;10.30;99.90
44990;DHT22;30723;51.206;3.326;2023-03-03T11:32:01;10.50;99.90
44990;DHT22;30723;51.206;3.326;2023-03-03T11:40:32;12.20;99.90
44990;DHT22;30723;51.206;3.326;2023-03-03T11:45:46;12.20;99.90
44990;DHT22;30723;51.206;3.326;2023-03-03T11:48:17;13.00;99.90
44990;DHT22;30723;51.206;3.326;2023-03-03T11:51:03;14.10;99.90
44990;DHT22;30723;51.206;3.326;2023-03-03T11:56:18;15.30;99.90
44990;DHT22;30723;51.206;3.326;2023-03-03T11:59:03;15.80;99.90
44990;DHT22;30723;51.206;3.326;2023-03-03T12:01:56;16.00;99.90
44990;DHT22;30723;51.206;3.326;2023-03-03T12:04:52;15.10;99.90
44990;DHT22;30723;51.206;3.326;2023-03-03T12:29:39;16.20;99.90
44990;DHT22;30723;51.206;3.326;2023-03-03T12:40:47;21.50;90.60
44990;DHT22;30723;51.206;3.326;2023-03-03T12:43:50;21.20;85.60
44990;DHT22;30723;51.206;3.326;2023-03-03T12:46:55;22.00;82.70
44990;DHT22;30723;51.206;3.326;2023-03-03T13:17:55;20.00;74.70
44990;DHT22;30723;51.206;3.326;2023-03-03T13:20:48;17.80;77.50
44990;DHT22;30723;51.206;3.326;2023-03-03T13:31:40;17.20;85.00
44990;DHT22;30723;51.206;3.326;2023-03-03T13:36:54;18.30;80.80
44990;DHT22;30723;51.206;3.326;2023-03-03T13:39:49;18.50;81.50
44990;DHT22;30723;51.206;3.326;2023-03-03T13:44:57;19.70;78.10
44990;DHT22;30723;51.206;3.326;2023-03-03T14:07:20;18.60;76.40
44990;DHT22;30723;51.206;3.326;2023-03-03T14:15:22;18.00;79.40
44990;DHT22;30723;51.206;3.326;2023-03-03T14:18:03;19.40;77.70
44990;DHT22;30723;51.206;3.326;2023-03-03T14:20:37;19.70;75.10
44990;DHT22;30723;51.206;3.326;2023-03-03T14:23:11;18.00;80.40
44990;DHT22;30723;51.206;3.326;2023-03-03T14:28:42;15.40;91.60
44990;DHT22;30723;51.206;3.326;2023-03-03T14:33:45;14.00;96.50
44990;DHT22;30723;51.206;3.326;2023-03-03T14:36:13;13.30;98.90
44990;DHT22;30723;51.206;3.326;2023-03-03T14:38:44;13.00;99.90
44990;DHT22;30723;51.206;3.326;2023-03-03T14:43:40;12.30;99.90
44990;DHT22;30723;51.206;3.326;2023-03-03T14:46:35;12.10;99.90
44990;DHT22;30723;51.206;3.326;2023-03-03T14:49:11;11.70;99.90
44990;DHT22;30723;51.206;3.326;2023-03-03T14:54:27;11.00;99.90
44990;DHT22;30723;51.206;3.326;2023-03-03T15:05:31;10.50;99.90
44990;DHT22;30723;51.206;3.326;2023-03-03T15:08:11;10.50;99.90
44990;DHT22;30723;51.206;3.326;2023-03-03T15:11:20;10.50;99.90
44990;DHT22;30723;51.206;3.326;2023-03-03T15:14:09;10.40;99.90
44990;DHT22;30723;51.206;3.326;2023-03-03T15:16:36;10.30;99.90
44990;DHT22;30723;51.206;3.326;2023-03-03T15:24:51;10.10;99.90
44990;DHT22;30723;51.206;3.326;2023-03-03T15:27:24;10.10;99.90
44990;DHT22;30723;51.206;3.326;2023-03-03T15:30:14;10.20;99.90
44990;DHT22;30723;51.206;3.326;2023-03-03T15:38:23;10.20;99.90
44990;DHT22;30723;51.206;3.326;2023-03-03T15:41:18;10.00;99.90
44990;DHT22;30723;51.206;3.326;2023-03-03T15:52:47;9.80;99.90
44990;DHT22;30723;51.206;3.326;2023-03-03T15:55:41;9.80;99.90
44990;DHT22;30723;51.206;3.326;2023-03-03T16:03:42;9.60;99.90
44990;DHT22;30723;51.206;3.326;2023-03-03T16:09:09;9.80;99.90
44990;DHT22;30723;51.206;3.326;2023-03-03T16:12:06;9.80;99.90
44990;DHT22;30723;51.206;3.326;2023-03-03T16:26:49;9.30;99.90
44990;DHT22;30723;51.206;3.326;2023-03-03T16:32:42;9.20;99.90
44990;DHT22;30723;51.206;3.326;2023-03-03T16:35:23;9.20;99.90
44990;DHT22;30723;51.206;3.326;2023-03-03T16:43:15;8.80;99.90
44990;DHT22;30723;51.206;3.326;2023-03-03T16:45:47;8.70;99.90
44990;DHT22;30723;51.206;3.326;2023-03-03T16:48:41;8.70;99.90
44990;DHT22;30723;51.206;3.326;2023-03-03T16:54:49;8.70;99.90
44990;DHT22;30723;51.206;3.326;2023-03-03T16:57:41;8.60;99.90
44990;DHT22;30723;51.206;3.326;2023-03-03T17:34:13;8.20;99.90
44990;DHT22;30723;51.206;3.326;2023-03-03T17:50:25;7.90;99.90
44990;DHT22;30723;51.206;3.326;2023-03-03T18:17:19;7.80;99.90
44990;DHT22;30723;51.206;3.326;2023-03-03T18:20:20;7.80;99.90
44990;DHT22;30723;51.206;3.326;2023-03-03T18:22:51;7.80;99.90
44990;DHT22;30723;51.206;3.326;2023-03-03T18:25:53;7.70;99.90
44990;DHT22;30723;51.206;3.326;2023-03-03T18:28:48;7.70;99.90
44990;DHT22;30723;51.206;3.326;2023-03-03T18:31:27;7.70;99.90
44990;DHT22;30723;51.206;3.326;2023-03-03T18:34:32;7.70;99.90
44990;DHT22;30723;51.206;3.326;2023-03-03T18:42:36;7.60;99.90
44990;DHT22;30723;51.206;3.326;2023-03-03T18:50:53;7.60;99.90
44990;DHT22;30723;51.206;3.326;2023-03-03T18:53:40;7.60;99.90
44990;DHT22;30723;51.206;3.326;2023-03-03T19:18:13;7.60;99.90
44990;DHT22;30723;51.206;3.326;2023-03-03T19:21:00;7.70;99.90
44990;DHT22;30723;51.206;3.326;2023-03-03T19:48:19;7.60;99.90
44990;DHT22;30723;51.206;3.326;2023-03-03T19:50:55;7.60;99.90
44990;DHT22;30723;51.206;3.326;2023-03-03T20:16:05;7.50;99.90
44990;DHT22;30723;51.206;3.326;2023-03-03T20:32:42;7.60;99.90
44990;DHT22;30723;51.206;3.326;2023-03-03T20:35:29;7.70;99.90
44990;DHT22;30723;51.206;3.326;2023-03-03T20:38:28;7.70;99.90
44990;DHT22;30723;51.206;3.326;2023-03-03T20:44:32;7.70;99.90
44990;DHT22;30723;51.206;3.326;2023-03-03T20:55:30;7.20;99.90
44990;DHT22;30723;51.206;3.326;2023-03-03T21:01:26;7.20;99.90
44990;DHT22;30723;51.206;3.326;2023-03-03T21:04:27;7.20;99.90
44990;DHT22;30723;51.206;3.326;2023-03-03T21:06:54;7.20;99.90
44990;DHT22;30723;51.206;3.326;2023-03-03T21:09:40;7.30;99.90
44990;DHT22;30723;51.206;3.326;2023-03-03T21:12:29;7.30;99.90
44990;DHT22;30723;51.206;3.326;2023-03-03T21:15:27;7.30;99.90
44990;DHT22;30723;51.206;3.326;2023-03-03T21:17:55;7.40;99.90
44990;DHT22;30723;51.206;3.326;2023-03-03T21:20:34;7.30;99.90
44990;DHT22;30723;51.206;3.326;2023-03-03T21:23:02;7.40;99.90
44990;DHT22;30723;51.206;3.326;2023-03-03T21:31:13;7.40;99.90
44990;DHT22;30723;51.206;3.326;2023-03-03T21:33:56;7.50;99.90
44990;DHT22;30723;51.206;3.326;2023-03-03T21:39:20;7.50;99.90
44990;DHT22;30723;51.206;3.326;2023-03-03T21:41:55;7.50;99.90
44990;DHT22;30723;51.206;3.326;2023-03-03T21:44:47;7.50;99.90
44990;DHT22;30723;51.206;3.326;2023-03-03T21:47:20;7.50;99.90
44990;DHT22;30723;51.206;3.326;2023-03-03T21:49:48;7.40;99.90
44990;DHT22;30723;51.206;3.326;2023-03-03T21:52:15;7.40;99.90
44990;DHT22;30723;51.206;3.326;2023-03-03T21:54:44;7.40;99.90
44990;DHT22;30723;51.206;3.326;2023-03-03T21:57:11;7.40;99.90
44990;DHT22;30723;51.206;3.326;2023-03-03T21:59:38;7.50;99.90
44990;DHT22;30723;51.206;3.326;2023-03-03T22:02:06;7.40;99.90
44990;DHT22;30723;51.206;3.326;2023-03-03T22:04:33;7.40;99.90
44990;DHT22;30723;51.206;3.326;2023-03-03T22:07:00;7.30;99.90
44990;DHT22;30723;51.206;3.326;2023-03-03T22:09:26;7.40;99.90
44990;DHT22;30723;51.206;3.326;2023-03-03T22:11:55;7.20;99.90
44990;DHT22;30723;51.206;3.326;2023-03-03T22:14:22;7.20;99.90
44990;DHT22;30723;51.206;3.326;2023-03-03T22:16:48;7.30;99.90
44990;DHT22;30723;51.206;3.326;2023-03-03T22:19:14;7.30;99.90
44990;DHT22;30723;51.206;3.326;2023-03-03T22:21:40;7.30;99.90
44990;DHT22;30723;51.206;3.326;2023-03-03T22:24:08;7.30;99.90
44990;DHT22;30723;51.206;3.326;2023-03-03T22:26:35;7.30;99.90
44990;DHT22;30723;51.206;3.326;2023-03-03T22:29:02;7.30;99.90
44990;DHT22;30723;51.206;3.326;2023-03-03T22:31:28;7.40;99.90
44990;DHT22;30723;51.206;3.326;2023-03-03T22:33:55;7.30;99.90
44990;DHT22;30723;51.206;3.326;2023-03-03T22:36:22;7.30;99.90
44990;DHT22;30723;51.206;3.326;2023-03-03T22:38:48;7.20;99.90
44990;DHT22;30723;51.206;3.326;2023-03-03T22:41:15;7.30;99.90
44990;DHT22;30723;51.206;3.326;2023-03-03T22:43:42;7.20;99.90
44990;DHT22;30723;51.206;3.326;2023-03-03T22:46:09;7.10;99.90
44990;DHT22;30723;51.206;3.326;2023-03-03T22:48:36;7.20;99.90
44990;DHT22;30723;51.206;3.326;2023-03-03T22:51:04;7.20;99.90
44990;DHT22;30723;51.206;3.326;2023-03-03T22:53:30;7.20;99.90
44990;DHT22;30723;51.206;3.326;2023-03-03T22:55:57;7.20;99.90
44990;DHT22;30723;51.206;3.326;2023-03-03T22:58:24;7.20;99.90
44990;DHT22;30723;51.206;3.326;2023-03-03T23:00:51;7.10;99.90
44990;DHT22;30723;51.206;3.326;2023-03-03T23:03:16;7.00;99.90
44990;DHT22;30723;51.206;3.326;2023-03-03T23:05:42;7.10;99.90
44990;DHT22;30723;51.206;3.326;2023-03-03T23:08:11;7.10;99.90
44990;DHT22;30723;51.206;3.326;2023-03-03T23:10:38;7.10;99.90
44990;DHT22;30723;51.206;3.326;2023-03-03T23:13:05;7.10;99.90
44990;DHT22;30723;51.206;3.326;2023-03-03T23:15:32;7.20;99.90
44990;DHT22;30723;51.206;3.326;2023-03-03T23:17:59;7.20;99.90
44990;DHT22;30723;51.206;3.326;2023-03-03T23:20:27;7.20;99.90
44990;DHT22;30723;51.206;3.326;2023-03-03T23:22:54;7.20;99.90
44990;DHT22;30723;51.206;3.326;2023-03-03T23:25:22;7.20;99.90
44990;DHT22;30723;51.206;3.326;2023-03-03T23:27:49;7.30;99.90
44990;DHT22;30723;51.206;3.326;2023-03-03T23:30:17;7.30;99.90
44990;DHT22;30723;51.206;3.326;2023-03-03T23:32:44;7.30;99.90
44990;DHT22;30723;51.206;3.326;2023-03-03T23:35:12;7.20;99.90
44990;DHT22;30723;51.206;3.326;2023-03-03T23:37:38;7.30;99.90
44990;DHT22;30723;51.206;3.326;2023-03-03T23:40:07;7.30;99.90
44990;DHT22;30723;51.206;3.326;2023-03-03T23:42:33;7.30;99.90
44990;DHT22;30723;51.206;3.326;2023-03-03T23:44:59;7.30;99.90
44990;DHT22;30723;51.206;3.326;2023-03-03T23:47:26;7.30;99.90
44990;DHT22;30723;51.206;3.326;2023-03-03T23:49:52;7.20;99.90
44990;DHT22;30723;51.206;3.326;2023-03-03T23:52:22;7.20;99.90
44990;DHT22;30723;51.206;3.326;2023-03-03T23:54:48;7.20;99.90
44990;DHT22;30723;51.206;3.326;2023-03-03T23:57:15;7.20;99.90
44990;DHT22;30723;51.206;3.326;2023-03-03T23:59:41;7.30;99.90
